Time;durP1;ratioP1;P1;durP2;ratioP2;P2;SDS_P1;SDS_P2;PMS_P1;PMS_P2;Temp;Humidity;BMP_temperature;BMP_pressure;BME280_temperature;BME280_humidity;BME280_pressure;Samples;Min_cycle;Max_cycle;Signal;HPM_P1;HPM_P2
2022/11/27 00:00:43;;;;;;;56.57;16.67;;;3.60;39.60;;;;;;5038498;28;20908;-68
2022/11/27 00:03:10;;;;;;;41.43;16.50;;;3.60;39.80;;;;;;5026533;28;20459;-68
2022/11/27 00:05:37;;;;;;;32.67;15.57;;;3.60;39.90;;;;;;5022682;28;20458;-68
2022/11/27 00:08:04;;;;;;;40.83;14.97;;;3.60;40.20;;;;;;5025314;28;20467;-68
2022/11/27 00:10:30;;;;;;;43.00;15.80;;;3.60;40.30;;;;;;5025893;28;20485;-69
2022/11/27 00:12:57;;;;;;;83.90;17.50;;;3.60;40.30;;;;;;5025744;28;20960;-68
2022/11/27 00:15:24;;;;;;;43.17;16.00;;;3.70;40.50;;;;;;5023023;28;20463;-68
2022/11/27 00:17:52;;;;;;;37.20;15.60;;;3.70;40.50;;;;;;5021363;28;20479;-68
2022/11/27 00:20:19;;;;;;;42.97;15.33;;;3.70;40.50;;;;;;5028007;28;20577;-68
2022/11/27 00:22:45;;;;;;;57.70;14.40;;;3.70;40.50;;;;;;5022977;28;20465;-68
2022/11/27 00:25:12;;;;;;;27.43;13.77;;;3.70;40.50;;;;;;5013727;28;21011;-68
2022/11/27 00:27:39;;;;;;;41.77;15.80;;;3.70;40.50;;;;;;5020646;28;20450;-69
2022/11/27 00:30:07;;;;;;;48.67;15.00;;;3.70;40.60;;;;;;5021301;28;20451;-69
2022/11/27 00:32:34;;;;;;;28.10;13.40;;;3.70;40.40;;;;;;5050689;28;20470;-70
2022/11/27 00:35:03;;;;;;;33.37;13.83;;;3.70;40.60;;;;;;5047280;28;20476;-69
2022/11/27 00:37:30;;;;;;;41.83;12.77;;;3.70;40.50;;;;;;5043311;28;20499;-69
2022/11/27 00:39:57;;;;;;;35.17;12.70;;;3.70;40.40;;;;;;5048861;28;20822;-69
2022/11/27 00:42:24;;;;;;;35.60;12.00;;;3.70;40.40;;;;;;5049578;28;20465;-69
2022/11/27 00:44:50;;;;;;;34.47;11.97;;;3.80;40.20;;;;;;5046690;28;20482;-68
2022/11/27 00:47:17;;;;;;;28.43;11.90;;;3.70;40.10;;;;;;5048516;28;20938;-69
2022/11/27 00:49:45;;;;;;;35.87;13.53;;;3.70;40.00;;;;;;5044013;28;20470;-69
2022/11/27 00:52:13;;;;;;;46.63;13.50;;;3.70;39.90;;;;;;5048346;28;20465;-69
2022/11/27 00:54:40;;;;;;;37.87;12.40;;;3.70;40.00;;;;;;5040031;28;20473;-69
2022/11/27 00:57:07;;;;;;;21.37;11.33;;;3.70;40.10;;;;;;5043042;28;20474;-69
2022/11/27 00:59:34;;;;;;;25.50;11.60;;;3.80;40.00;;;;;;5038777;28;20469;-69
2022/11/27 01:02:00;;;;;;;32.63;11.37;;;3.70;40.20;;;;;;5045034;28;20486;-69
2022/11/27 01:04:27;;;;;;;21.60;10.03;;;3.70;40.00;;;;;;5036892;28;20484;-69
2022/11/27 01:06:54;;;;;;;28.87;10.23;;;3.70;39.90;;;;;;5040490;28;20551;-69
2022/11/27 01:09:22;;;;;;;26.40;10.70;;;3.70;40.00;;;;;;5044048;28;20456;-70
2022/11/27 01:11:49;;;;;;;37.20;11.60;;;3.70;40.00;;;;;;5043957;28;20454;-69
2022/11/27 01:14:17;;;;;;;25.53;11.57;;;3.70;40.00;;;;;;5038848;28;20500;-69
2022/11/27 01:16:45;;;;;;;34.50;10.93;;;3.70;40.10;;;;;;5039030;28;20478;-69
2022/11/27 01:19:13;;;;;;;30.00;10.30;;;3.70;40.10;;;;;;5047548;28;20458;-70
2022/11/27 01:21:40;;;;;;;22.63;11.30;;;3.60;40.00;;;;;;5046218;28;20545;-69
2022/11/27 01:24:08;;;;;;;44.13;11.53;;;3.60;40.20;;;;;;5041867;28;20481;-68
2022/11/27 01:26:36;;;;;;;39.03;10.37;;;3.50;40.40;;;;;;5043340;28;20487;-68
2022/11/27 01:29:03;;;;;;;22.23;11.63;;;3.50;40.70;;;;;;5038974;28;20466;-68
2022/11/27 01:31:31;;;;;;;23.63;11.50;;;3.50;40.70;;;;;;5045384;28;20478;-69
2022/11/27 01:34:01;;;;;;;25.40;11.30;;;3.40;40.90;;;;;;5058203;22;20643;-76
2022/11/27 01:36:28;;;;;;;29.87;12.00;;;3.40;41.10;;;;;;5065137;28;20496;-77
2022/11/27 01:38:56;;;;;;;22.33;11.10;;;3.40;41.30;;;;;;5066242;28;20462;-78
2022/11/27 01:41:26;;;;;;;21.93;10.40;;;3.40;41.40;;;;;;5067446;28;20555;-76
2022/11/27 01:43:57;;;;;;;69.23;12.27;;;3.50;41.50;;;;;;5066676;28;20477;-76
2022/11/27 01:46:30;;;;;;;34.50;11.83;;;3.40;41.30;;;;;;5063888;28;20999;-76
2022/11/27 01:49:02;;;;;;;51.10;12.90;;;3.40;41.30;;;;;;5059856;28;20551;-76
2022/11/27 01:51:31;;;;;;;29.10;11.93;;;3.40;41.40;;;;;;5063334;28;20461;-76
2022/11/27 01:53:59;;;;;;;31.87;10.53;;;3.40;41.50;;;;;;5066886;28;20547;-76
2022/11/27 01:56:28;;;;;;;21.70;11.77;;;3.40;41.50;;;;;;5060804;28;20522;-76
2022/11/27 01:58:58;;;;;;;24.30;11.40;;;3.40;41.60;;;;;;5063674;28;20548;-76
2022/11/27 02:01:25;;;;;;;44.27;11.23;;;3.40;41.60;;;;;;5058649;28;20480;-77
2022/11/27 02:03:52;;;;;;;33.67;9.70;;;3.40;41.50;;;;;;5061935;28;21086;-77
2022/11/27 02:06:19;;;;;;;32.67;10.43;;;3.40;41.40;;;;;;5064875;28;20461;-77
2022/11/27 02:08:46;;;;;;;53.13;11.00;;;3.40;41.40;;;;;;5065435;28;20568;-77
2022/11/27 02:11:18;;;;;;;27.17;10.13;;;3.40;41.30;;;;;;5061819;28;21122;-77
2022/11/27 02:13:49;;;;;;;30.23;9.53;;;3.30;41.20;;;;;;5060195;28;20485;-78
2022/11/27 02:16:24;;;;;;;33.67;11.07;;;3.30;41.20;;;;;;5063360;28;20950;-77
2022/11/27 02:18:57;;;;;;;39.87;8.93;;;3.30;41.40;;;;;;5065208;28;20454;-77
2022/11/27 02:21:34;;;;;;;25.30;11.00;;;3.20;41.20;;;;;;5062794;28;20454;-77
2022/11/27 02:24:48;;;;;;;44.30;11.00;;;3.20;41.30;;;;;;5063491;28;20491;-77
2022/11/27 02:27:41;;;;;;;27.33;10.27;;;3.10;41.70;;;;;;5035295;28;20488;-77
2022/11/27 02:30:10;;;;;;;20.27;10.70;;;3.00;41.40;;;;;;5062687;28;20457;-77
2022/11/27 02:32:40;;;;;;;21.17;10.00;;;3.00;41.50;;;;;;5040459;28;20466;-77
2022/11/27 02:35:13;;;;;;;29.60;9.80;;;3.00;41.60;;;;;;5039413;28;20482;-77
2022/11/27 02:37:46;;;;;;;36.67;10.37;;;3.00;41.70;;;;;;5043438;28;20496;-77
2022/11/27 02:40:17;;;;;;;22.93;8.77;;;3.00;41.50;;;;;;5041444;28;21250;-77
2022/11/27 02:42:47;;;;;;;22.30;9.83;;;3.00;41.30;;;;;;5041798;28;20549;-77
2022/11/27 02:45:21;;;;;;;29.30;9.13;;;3.00;41.20;;;;;;5040970;28;21014;-77
2022/11/27 02:47:50;;;;;;;27.37;10.40;;;3.00;41.30;;;;;;5042045;28;20457;-77
2022/11/27 02:50:19;;;;;;;40.43;12.10;;;3.00;41.10;;;;;;5035282;28;20493;-77
2022/11/27 02:52:50;;;;;;;23.23;9.90;;;3.00;41.10;;;;;;5045562;28;20545;-77
2022/11/27 02:55:21;;;;;;;19.30;9.27;;;3.00;41.10;;;;;;5038177;28;20473;-78
2022/11/27 02:57:50;;;;;;;36.23;10.53;;;3.00;41.10;;;;;;5045655;28;20671;-77
2022/11/27 03:00:19;;;;;;;31.17;10.97;;;3.00;41.20;;;;;;5039150;28;21083;-76
2022/11/27 03:02:58;;;;;;;26.10;8.93;;;3.10;41.20;;;;;;5066083;28;20461;-77
2022/11/27 03:05:30;;;;;;;24.63;9.33;;;3.10;41.20;;;;;;5065562;28;20476;-76
2022/11/27 03:08:02;;;;;;;21.47;9.10;;;3.10;40.90;;;;;;5062602;28;20449;-76
2022/11/27 03:10:34;;;;;;;13.50;9.00;;;3.10;40.90;;;;;;5061889;28;20464;-76
2022/11/27 03:13:02;;;;;;;56.47;10.20;;;3.20;40.80;;;;;;5064623;28;20460;-76
2022/11/27 03:15:40;;;;;;;52.07;9.87;;;3.10;40.50;;;;;;5063392;28;20477;-76
2022/11/27 03:18:13;;;;;;;43.93;10.20;;;3.00;39.90;;;;;;5064313;28;20475;-76
2022/11/27 03:20:43;;;;;;;37.13;8.97;;;2.90;40.00;;;;;;5064329;28;20468;-77
2022/11/27 03:23:09;;;;;;;18.53;9.27;;;2.90;40.10;;;;;;5065349;28;20971;-76
2022/11/27 03:25:36;;;;;;;41.80;8.90;;;2.80;40.30;;;;;;5063836;28;20484;-76
2022/11/27 03:28:07;;;;;;;40.90;8.30;;;2.80;40.80;;;;;;5063977;28;20483;-76
2022/11/27 03:30:36;;;;;;;12.10;8.37;;;2.70;40.40;;;;;;5057097;28;20480;-77
2022/11/27 03:33:03;;;;;;;39.40;10.40;;;2.60;40.70;;;;;;5064246;28;20457;-76
2022/11/27 03:35:30;;;;;;;19.67;8.13;;;2.60;40.80;;;;;;5064285;28;21223;-77
2022/11/27 03:37:57;;;;;;;44.47;11.00;;;2.60;41.60;;;;;;5068377;28;20477;-76
2022/11/27 03:40:30;;;;;;;23.63;8.43;;;2.60;41.00;;;;;;5064039;28;20631;-76
2022/11/27 03:43:02;;;;;;;39.40;9.93;;;2.70;41.20;;;;;;5069373;28;20461;-76
2022/11/27 03:45:37;;;;;;;37.03;9.23;;;2.70;40.90;;;;;;5067526;28;20484;-76
2022/11/27 03:48:19;;;;;;;18.23;8.23;;;2.70;40.80;;;;;;5062422;28;20449;-77
2022/11/27 03:50:57;;;;;;;14.27;9.30;;;2.70;40.70;;;;;;5062522;28;20465;-76
2022/11/27 03:53:34;;;;;;;25.00;8.40;;;2.70;40.70;;;;;;5067768;28;20460;-76
2022/11/27 03:56:07;;;;;;;18.80;9.70;;;2.60;40.60;;;;;;5063156;28;20468;-77
2022/11/27 03:58:38;;;;;;;17.70;8.67;;;2.70;40.80;;;;;;5063211;28;20473;-76
2022/11/27 04:01:08;;;;;;;19.03;9.40;;;2.70;40.80;;;;;;5066669;28;20484;-78
2022/11/27 04:03:37;;;;;;;18.97;9.10;;;2.70;41.00;;;;;;5067986;28;20460;-78
2022/11/27 04:06:04;;;;;;;22.97;9.17;;;2.70;40.90;;;;;;5063803;28;20454;-78
2022/11/27 04:08:31;;;;;;;16.63;10.07;;;2.70;40.70;;;;;;5063919;28;20457;-77
2022/11/27 04:10:58;;;;;;;22.70;9.03;;;2.80;40.70;;;;;;5064947;28;20460;-77
2022/11/27 04:13:26;;;;;;;21.70;9.57;;;2.70;40.70;;;;;;5067500;28;21008;-77
2022/11/27 04:15:52;;;;;;;16.40;9.40;;;2.70;40.80;;;;;;5068963;28;20456;-77
2022/11/27 04:18:19;;;;;;;25.20;8.70;;;2.70;40.80;;;;;;5066450;28;20484;-77
2022/11/27 04:20:47;;;;;;;16.23;9.40;;;2.60;40.60;;;;;;5062263;28;20482;-77
2022/11/27 04:23:14;;;;;;;25.20;10.50;;;2.60;40.70;;;;;;5062723;28;20461;-77
2022/11/27 04:25:41;;;;;;;22.40;8.97;;;2.60;40.70;;;;;;5064041;28;20485;-77
2022/11/27 04:28:07;;;;;;;19.30;9.83;;;2.60;40.60;;;;;;5067471;28;20453;-76
2022/11/27 04:30:34;;;;;;;23.00;10.20;;;2.60;40.60;;;;;;5066661;28;20483;-76
2022/11/27 04:33:01;;;;;;;20.60;9.33;;;2.60;40.60;;;;;;5066039;28;20483;-77
2022/11/27 04:35:28;;;;;;;22.10;8.10;;;2.60;40.70;;;;;;5059546;28;20489;-77
2022/11/27 04:37:57;;;;;;;18.83;10.93;;;2.60;40.80;;;;;;5063653;28;20992;-77
2022/11/27 04:40:24;;;;;;;22.23;10.50;;;2.60;40.90;;;;;;5066420;28;20468;-77
2022/11/27 04:42:51;;;;;;;29.23;10.23;;;2.60;40.80;;;;;;5061950;28;20469;-77
2022/11/27 04:45:18;;;;;;;18.10;9.47;;;2.60;40.80;;;;;;5060061;28;20485;-77
2022/11/27 04:47:45;;;;;;;26.27;9.50;;;2.60;40.80;;;;;;5066812;28;20463;-76
2022/11/27 04:50:12;;;;;;;33.50;10.60;;;2.50;40.90;;;;;;5060539;28;20458;-76
2022/11/27 04:52:38;;;;;;;22.10;9.63;;;2.60;40.80;;;;;;5063849;28;20467;-76
2022/11/27 04:55:08;;;;;;;21.33;9.80;;;2.60;40.80;;;;;;5065668;28;20491;-77
2022/11/27 04:57:35;;;;;;;20.40;9.10;;;2.60;40.90;;;;;;5064898;28;20481;-77
2022/11/27 05:00:03;;;;;;;28.57;8.60;;;2.50;40.90;;;;;;5065731;28;20460;-76
2022/11/27 05:02:30;;;;;;;34.17;9.93;;;2.60;41.00;;;;;;5065936;28;20477;-77
2022/11/27 05:04:56;;;;;;;17.77;10.53;;;2.60;40.90;;;;;;5053036;28;20478;-76
2022/11/27 05:07:23;;;;;;;19.77;8.50;;;2.60;40.70;;;;;;5066204;28;20453;-77
2022/11/27 05:09:51;;;;;;;41.43;8.80;;;2.60;40.60;;;;;;5062703;28;20452;-76
2022/11/27 05:12:19;;;;;;;18.30;8.07;;;2.60;40.60;;;;;;5063280;28;20464;-76
2022/11/27 05:14:46;;;;;;;27.40;7.80;;;2.60;40.40;;;;;;5063423;28;20474;-76
2022/11/27 05:17:12;;;;;;;32.37;9.30;;;2.60;40.20;;;;;;5066202;28;20457;-77
2022/11/27 05:19:39;;;;;;;27.50;8.03;;;2.50;40.30;;;;;;5059130;28;20785;-77
2022/11/27 05:22:06;;;;;;;23.47;8.13;;;2.60;40.10;;;;;;5066521;28;20453;-77
2022/11/27 05:24:33;;;;;;;30.97;8.60;;;2.60;40.20;;;;;;5058125;28;20610;-76
2022/11/27 05:26:59;;;;;;;43.70;9.13;;;2.50;40.10;;;;;;5064041;28;20461;-77
2022/11/27 05:29:28;;;;;;;13.77;9.10;;;2.50;40.10;;;;;;5065548;28;20464;-77
2022/11/27 05:31:54;;;;;;;22.97;9.70;;;2.50;40.20;;;;;;5068501;28;20469;-77
2022/11/27 05:34:21;;;;;;;25.50;9.60;;;2.50;41.00;;;;;;5076211;28;20496;-77
2022/11/27 05:36:48;;;;;;;25.13;10.03;;;2.50;40.50;;;;;;5063206;28;20457;-77
2022/11/27 05:39:15;;;;;;;36.13;11.10;;;2.50;40.40;;;;;;5062224;28;20477;-77
2022/11/27 05:41:43;;;;;;;50.57;10.60;;;2.50;40.50;;;;;;5063647;28;20457;-77
2022/11/27 05:44:11;;;;;;;52.60;9.17;;;2.50;40.30;;;;;;5064569;28;20651;-76
2022/11/27 05:46:39;;;;;;;21.33;8.87;;;2.40;40.10;;;;;;5066822;28;20471;-76
2022/11/27 05:49:06;;;;;;;56.13;11.80;;;2.40;40.00;;;;;;5063387;28;20485;-76
2022/11/27 05:51:33;;;;;;;26.17;9.90;;;2.30;40.10;;;;;;5056474;28;20453;-77
2022/11/27 05:54:00;;;;;;;33.53;10.37;;;2.30;40.30;;;;;;5062349;28;20513;-76
2022/11/27 05:56:26;;;;;;;46.80;10.23;;;2.30;40.50;;;;;;5055404;28;20830;-76
2022/11/27 05:58:53;;;;;;;95.77;12.23;;;2.30;40.30;;;;;;5062908;28;20575;-77
2022/11/27 06:01:20;;;;;;;14.87;8.97;;;2.20;40.30;;;;;;5061602;28;20500;-76
2022/11/27 06:03:48;;;;;;;102.63;12.67;;;2.10;40.20;;;;;;5065627;28;20841;-77
2022/11/27 06:06:17;;;;;;;28.70;11.40;;;2.10;40.30;;;;;;5061710;28;20461;-77
2022/11/27 06:08:44;;;;;;;37.17;9.17;;;2.10;40.40;;;;;;5061234;28;20492;-76
2022/11/27 06:11:13;;;;;;;18.43;10.23;;;2.10;40.50;;;;;;5059042;28;20468;-76
2022/11/27 06:13:40;;;;;;;33.43;10.60;;;2.00;40.60;;;;;;5063910;28;20477;-76
2022/11/27 06:16:08;;;;;;;17.13;8.77;;;2.10;40.80;;;;;;5066453;28;20472;-76
2022/11/27 06:18:35;;;;;;;34.43;10.40;;;2.00;40.60;;;;;;5062703;28;21192;-76
2022/11/27 06:21:08;;;;;;;37.93;10.67;;;2.00;40.80;;;;;;5063042;28;20460;-76
2022/11/27 06:23:35;;;;;;;26.37;9.70;;;2.00;40.80;;;;;;5058131;28;20472;-76
2022/11/27 06:26:10;;;;;;;51.93;10.20;;;2.00;40.60;;;;;;5061499;28;20465;-76
2022/11/27 06:28:37;;;;;;;56.23;10.43;;;2.00;40.60;;;;;;5062649;28;20448;-76
2022/11/27 06:31:06;;;;;;;71.10;11.37;;;2.00;40.50;;;;;;5058114;28;20977;-76
2022/11/27 06:33:33;;;;;;;58.00;10.93;;;2.00;40.40;;;;;;5059758;28;20507;-76
2022/11/27 06:36:00;;;;;;;51.80;10.43;;;1.90;40.30;;;;;;5060486;28;20461;-76
2022/11/27 06:38:28;;;;;;;47.43;9.70;;;1.90;40.10;;;;;;5066551;28;20481;-77
2022/11/27 06:40:55;;;;;;;45.57;11.00;;;1.90;40.40;;;;;;5057428;28;20458;-76
2022/11/27 06:43:22;;;;;;;71.33;10.13;;;1.80;40.50;;;;;;5065447;28;20468;-77
2022/11/27 06:45:55;;;;;;;32.77;10.10;;;1.80;40.40;;;;;;5063179;28;20457;-76
2022/11/27 06:48:22;;;;;;;38.63;9.60;;;1.70;40.60;;;;;;5063752;28;20837;-77
2022/11/27 06:50:49;;;;;;;41.60;9.83;;;1.70;40.60;;;;;;5060494;28;20468;-77
2022/11/27 06:53:16;;;;;;;31.77;8.83;;;1.60;40.80;;;;;;5064841;28;20472;-76
2022/11/27 06:55:44;;;;;;;29.73;9.60;;;1.60;41.00;;;;;;5062400;28;20487;-77
2022/11/27 06:58:11;;;;;;;52.97;11.40;;;1.50;41.20;;;;;;5064121;28;20481;-77
2022/11/27 07:00:38;;;;;;;27.17;8.63;;;1.50;41.60;;;;;;5061132;28;20982;-76
2022/11/27 07:03:05;;;;;;;51.60;9.77;;;1.40;41.60;;;;;;5068824;28;20457;-76
2022/11/27 07:05:31;;;;;;;41.80;9.40;;;1.40;42.10;;;;;;5064551;28;20481;-76
2022/11/27 07:07:58;;;;;;;48.50;9.13;;;1.40;42.10;;;;;;5063664;28;20965;-76
2022/11/27 07:10:25;;;;;;;57.07;9.40;;;1.50;42.30;;;;;;5062013;28;20465;-75
2022/11/27 07:12:53;;;;;;;26.43;7.57;;;1.40;42.30;;;;;;5064400;28;20464;-76
2022/11/27 07:15:20;;;;;;;35.97;9.53;;;1.50;42.40;;;;;;5065334;28;20477;-77
2022/11/27 07:17:47;;;;;;;17.80;8.37;;;1.50;42.30;;;;;;5065437;28;20468;-77
2022/11/27 07:20:14;;;;;;;36.10;8.90;;;1.60;42.30;;;;;;5063022;28;20461;-76
2022/11/27 07:22:40;;;;;;;18.30;8.10;;;1.60;42.20;;;;;;5056889;28;20469;-77
2022/11/27 07:25:08;;;;;;;18.67;8.30;;;1.60;42.10;;;;;;5062175;28;20492;-76
2022/11/27 07:27:35;;;;;;;23.10;8.53;;;1.70;42.20;;;;;;5059158;28;20453;-77
2022/11/27 07:30:04;;;;;;;20.13;8.33;;;1.80;42.00;;;;;;5060975;28;20812;-77
2022/11/27 07:32:31;;;;;;;16.37;7.77;;;1.90;41.70;;;;;;5064347;28;20488;-74
2022/11/27 07:34:58;;;;;;;20.47;8.17;;;2.00;41.30;;;;;;5058458;28;20503;-74
2022/11/27 07:37:25;;;;;;;15.00;7.40;;;2.00;40.80;;;;;;5066870;28;20837;-73
2022/11/27 07:39:52;;;;;;;16.63;9.57;;;2.00;40.70;;;;;;5059060;28;20477;-74
2022/11/27 07:42:18;;;;;;;12.80;7.97;;;2.00;40.90;;;;;;5061084;28;20467;-73
2022/11/27 07:44:45;;;;;;;15.30;8.37;;;2.10;41.00;;;;;;5063693;28;20850;-73
2022/11/27 07:47:13;;;;;;;18.47;7.53;;;2.10;41.00;;;;;;5068042;28;20561;-73
2022/11/27 07:49:40;;;;;;;12.27;7.70;;;2.10;40.90;;;;;;5060972;28;20465;-73
2022/11/27 07:52:07;;;;;;;16.67;7.77;;;2.10;40.90;;;;;;5066572;28;20491;-67
2022/11/27 07:54:35;;;;;;;13.67;6.83;;;2.10;40.70;;;;;;5059026;28;21008;-73
2022/11/27 07:57:01;;;;;;;17.87;8.00;;;2.20;40.60;;;;;;5068247;28;20824;-75
2022/11/27 07:59:28;;;;;;;17.90;8.93;;;2.20;40.40;;;;;;5059978;28;21037;-74
2022/11/27 08:01:55;;;;;;;14.33;7.30;;;2.30;40.30;;;;;;5067114;28;20817;-71
2022/11/27 08:04:23;;;;;;;13.30;7.00;;;2.30;40.10;;;;;;5061067;28;20823;-75
2022/11/27 08:06:50;;;;;;;21.20;8.30;;;2.30;39.90;;;;;;5066168;28;20458;-71
2022/11/27 08:09:17;;;;;;;12.80;7.90;;;2.40;39.80;;;;;;5067693;28;20453;-72
2022/11/27 08:11:43;;;;;;;16.07;8.20;;;2.40;39.60;;;;;;5056322;28;20461;-76
2022/11/27 08:14:12;;;;;;;15.87;8.20;;;2.50;39.10;;;;;;5068485;28;20488;-77
2022/11/27 08:16:39;;;;;;;20.20;7.60;;;2.50;38.80;;;;;;5066334;28;20457;-74
2022/11/27 08:19:06;;;;;;;13.90;7.00;;;2.60;38.70;;;;;;5067947;28;20481;-76
2022/11/27 08:21:34;;;;;;;18.50;7.80;;;2.60;38.80;;;;;;5067619;28;20461;-75
2022/11/27 08:24:01;;;;;;;18.07;9.80;;;2.60;38.90;;;;;;5067933;28;20477;-75
2022/11/27 08:26:27;;;;;;;16.23;6.33;;;2.60;38.60;;;;;;5064588;28;20979;-75
2022/11/27 08:28:55;;;;;;;20.63;7.40;;;2.60;38.40;;;;;;5066544;28;20492;-70
2022/11/27 08:31:22;;;;;;;11.53;7.50;;;2.60;38.10;;;;;;5071324;28;20854;-72
2022/11/27 08:33:49;;;;;;;16.90;7.73;;;2.60;38.10;;;;;;5065509;28;20481;-75
2022/11/27 08:36:16;;;;;;;38.37;9.50;;;2.60;38.20;;;;;;5072125;28;20463;-72
2022/11/27 08:38:44;;;;;;;16.30;8.83;;;2.60;38.20;;;;;;5065656;28;20480;-72
2022/11/27 08:41:14;;;;;;;26.97;9.20;;;2.60;38.10;;;;;;5062951;28;20462;-72
2022/11/27 08:43:41;;;;;;;46.10;8.57;;;2.60;37.90;;;;;;5061634;28;20499;-72
2022/11/27 08:46:08;;;;;;;26.00;7.73;;;2.60;37.90;;;;;;5063895;28;20461;-72
2022/11/27 08:48:35;;;;;;;26.67;8.20;;;2.60;38.00;;;;;;5066275;28;20457;-72
2022/11/27 08:51:06;;;;;;;33.63;7.33;;;2.60;38.00;;;;;;5066075;28;20899;-72
2022/11/27 08:53:34;;;;;;;13.70;7.40;;;2.60;37.90;;;;;;5065041;28;20460;-71
2022/11/27 08:56:08;;;;;;;10.43;6.30;;;2.60;37.90;;;;;;5065783;28;20461;-72
2022/11/27 08:58:35;;;;;;;19.40;7.10;;;2.70;38.10;;;;;;5068028;28;20481;-72
2022/11/27 09:01:07;;;;;;;14.83;8.03;;;2.80;38.10;;;;;;5060496;28;20478;-72
2022/11/27 09:03:34;;;;;;;16.90;7.47;;;2.90;38.00;;;;;;5060437;28;20464;-72
2022/11/27 09:06:01;;;;;;;18.43;9.30;;;3.10;37.80;;;;;;5066942;28;20461;-72
2022/11/27 09:08:28;;;;;;;13.87;8.87;;;3.20;37.20;;;;;;5062965;28;20453;-71
2022/11/27 09:10:58;;;;;;;15.60;10.50;;;3.40;37.40;;;;;;5067063;28;20975;-72
2022/11/27 09:13:27;;;;;;;20.93;9.37;;;3.60;37.40;;;;;;5065797;28;20945;-72
2022/11/27 09:15:55;;;;;;;20.87;10.00;;;3.80;37.00;;;;;;5065455;28;20457;-72
2022/11/27 09:18:22;;;;;;;18.20;9.40;;;3.80;36.90;;;;;;5065814;28;20829;-72
2022/11/27 09:20:55;;;;;;;19.57;9.20;;;3.90;35.90;;;;;;5057777;28;20472;-76
2022/11/27 09:23:22;;;;;;;14.27;8.03;;;3.90;35.70;;;;;;5066277;28;20464;-73
2022/11/27 09:25:49;;;;;;;16.23;7.97;;;3.90;35.50;;;;;;5058788;28;20576;-75
2022/11/27 09:28:16;;;;;;;29.83;7.97;;;3.80;34.90;;;;;;5065548;28;20461;-75
2022/11/27 09:30:44;;;;;;;24.90;8.73;;;3.70;34.70;;;;;;5051103;28;20481;-75
2022/11/27 09:33:11;;;;;;;15.40;8.43;;;3.70;34.30;;;;;;5055883;22;20486;-71
2022/11/27 09:35:38;;;;;;;25.23;9.10;;;3.60;34.40;;;;;;5039809;28;20477;-70
2022/11/27 09:38:05;;;;;;;18.93;8.60;;;3.60;34.70;;;;;;5043040;28;20462;-71
2022/11/27 09:40:32;;;;;;;11.90;8.00;;;3.60;34.60;;;;;;5045353;28;20497;-72
2022/11/27 09:43:04;;;;;;;11.13;6.40;;;3.60;34.60;;;;;;5043273;28;20477;-75
2022/11/27 09:45:31;;;;;;;9.83;5.43;;;3.60;34.60;;;;;;5041633;28;20508;-70
2022/11/27 09:48:02;;;;;;;12.20;6.87;;;3.50;34.40;;;;;;5041625;28;20465;-70
2022/11/27 09:50:31;;;;;;;19.80;6.87;;;3.40;34.40;;;;;;5040704;28;20493;-75
2022/11/27 09:53:03;;;;;;;15.27;7.23;;;3.40;34.30;;;;;;5047784;28;21020;-71
2022/11/27 09:55:36;;;;;;;12.17;7.60;;;3.50;34.30;;;;;;5042055;28;20497;-72
2022/11/27 09:58:06;;;;;;;10.87;7.00;;;3.40;34.50;;;;;;5040896;28;20454;-75
2022/11/27 10:00:33;;;;;;;15.67;8.00;;;3.40;34.70;;;;;;5039802;28;20505;-71
2022/11/27 10:03:01;;;;;;;16.20;7.30;;;3.50;34.90;;;;;;5045279;28;20482;-68
2022/11/27 10:05:35;;;;;;;15.67;7.20;;;3.60;34.90;;;;;;5043262;28;20463;-75
2022/11/27 10:08:25;;;;;;;17.33;7.40;;;3.70;34.60;;;;;;5046762;28;20465;-72
2022/11/27 10:11:09;;;;;;;16.03;7.77;;;3.70;34.60;;;;;;5045061;28;20466;-70
2022/11/27 10:13:49;;;;;;;13.07;7.47;;;3.70;34.50;;;;;;5001743;28;22763;-73
2022/11/27 10:16:23;;;;;;;15.20;7.90;;;3.80;34.40;;;;;;5040935;28;20816;-71
2022/11/27 10:18:55;;;;;;;12.30;7.27;;;3.90;33.70;;;;;;5041942;28;20972;-72
2022/11/27 10:21:33;;;;;;;11.43;6.53;;;4.00;33.40;;;;;;5042454;28;20780;-73
2022/11/27 10:24:10;;;;;;;19.07;7.53;;;4.00;34.10;;;;;;5043625;28;20462;-74
2022/11/27 10:26:41;;;;;;;12.23;6.73;;;4.20;33.60;;;;;;5044916;28;20485;-73
2022/11/27 10:29:21;;;;;;;8.87;6.00;;;4.20;32.70;;;;;;5043844;28;20454;-72
2022/11/27 10:31:51;;;;;;;14.67;7.30;;;4.20;32.90;;;;;;5028723;28;20523;-72
2022/11/27 10:34:29;;;;;;;12.03;7.80;;;4.20;32.90;;;;;;5043089;28;20515;-72
2022/11/27 10:36:57;;;;;;;11.40;7.50;;;4.10;33.10;;;;;;5044083;28;20450;-71
2022/11/27 10:39:36;;;;;;;15.13;9.47;;;4.10;33.40;;;;;;5045455;28;20482;-69
2022/11/27 10:42:07;;;;;;;12.03;7.93;;;4.20;33.50;;;;;;5047023;28;20475;-76
2022/11/27 10:44:39;;;;;;;15.03;10.67;;;4.30;33.70;;;;;;5044213;28;20826;-74
2022/11/27 10:47:10;;;;;;;20.40;13.83;;;4.40;33.80;;;;;;5044728;28;20459;-69
2022/11/27 10:49:41;;;;;;;16.80;10.47;;;4.40;33.90;;;;;;5046229;28;20460;-71
2022/11/27 10:52:12;;;;;;;16.37;10.10;;;4.40;34.00;;;;;;5042404;28;21036;-70
2022/11/27 10:54:40;;;;;;;15.07;9.90;;;4.50;34.00;;;;;;5043102;28;20485;-71
2022/11/27 10:57:41;;;;;;;14.70;9.30;;;4.50;33.90;;;;;;5046179;28;20466;-72
2022/11/27 11:00:14;;;;;;;15.80;10.33;;;4.60;34.50;;;;;;5044705;28;20493;-73
2022/11/27 11:02:41;;;;;;;13.40;9.27;;;4.60;34.00;;;;;;5041673;28;21013;-71
2022/11/27 11:05:23;;;;;;;15.63;9.20;;;4.60;34.00;;;;;;5045904;28;20962;-70
2022/11/27 11:07:56;;;;;;;13.67;9.43;;;4.50;34.30;;;;;;5045393;28;20910;-68
2022/11/27 11:10:27;;;;;;;15.70;10.30;;;4.60;34.40;;;;;;5034713;28;20458;-70
2022/11/27 11:13:15;;;;;;;15.93;11.17;;;4.60;34.50;;;;;;5042417;28;20516;-70
2022/11/27 11:15:54;;;;;;;17.20;11.90;;;4.60;34.60;;;;;;5033613;28;20462;-75
2022/11/27 11:18:23;;;;;;;18.03;11.50;;;4.70;34.80;;;;;;5035797;28;20477;-69
2022/11/27 11:20:53;;;;;;;30.60;14.30;;;4.70;34.70;;;;;;5047896;28;20485;-70
2022/11/27 11:23:24;;;;;;;23.10;12.97;;;4.70;33.80;;;;;;5042987;28;21070;-70
2022/11/27 11:25:53;;;;;;;20.40;11.37;;;4.70;33.60;;;;;;5040799;28;20953;-67
2022/11/27 11:28:21;;;;;;;16.37;11.53;;;4.60;33.90;;;;;;5042230;28;20461;-67
2022/11/27 11:30:59;;;;;;;17.60;10.83;;;4.70;34.20;;;;;;5040967;28;20474;-74
2022/11/27 11:33:27;;;;;;;18.47;12.27;;;4.70;34.20;;;;;;5043553;28;20502;-71
2022/11/27 11:36:01;;;;;;;17.60;11.17;;;4.60;34.10;;;;;;5042697;28;20538;-70
2022/11/27 11:38:32;;;;;;;14.57;10.40;;;4.60;34.10;;;;;;5050005;28;20820;-72
2022/11/27 11:41:02;;;;;;;17.50;12.27;;;4.60;34.20;;;;;;5041727;28;20997;-76
2022/11/27 11:43:31;;;;;;;16.00;11.23;;;4.60;34.00;;;;;;5042169;28;20573;-75
2022/11/27 11:46:07;;;;;;;14.40;9.40;;;4.70;34.00;;;;;;5042795;28;20454;-72
2022/11/27 11:48:34;;;;;;;18.13;12.10;;;4.80;33.90;;;;;;5050583;28;20465;-70
2022/11/27 11:51:09;;;;;;;14.47;9.53;;;4.80;33.70;;;;;;5041091;28;20462;-72
2022/11/27 11:53:38;;;;;;;15.00;10.70;;;4.90;33.60;;;;;;5041625;28;20504;-72
2022/11/27 11:56:18;;;;;;;15.93;10.63;;;5.00;33.50;;;;;;5041238;28;20458;-66
2022/11/27 11:58:55;;;;;;;26.70;11.80;;;5.00;33.30;;;;;;5041224;28;20465;-75
2022/11/27 12:01:38;;;;;;;21.10;13.13;;;5.00;33.00;;;;;;5050995;28;20465;-66
2022/11/27 12:04:20;;;;;;;19.27;11.10;;;4.90;32.90;;;;;;5048917;28;20473;-68
2022/11/27 12:06:57;;;;;;;15.87;11.07;;;4.80;33.10;;;;;;5046397;28;20461;-68
2022/11/27 12:09:37;;;;;;;19.30;11.97;;;4.80;33.20;;;;;;5038182;28;20453;-68
2022/11/27 12:12:13;;;;;;;21.80;14.03;;;4.90;33.30;;;;;;5043464;28;20478;-70
2022/11/27 12:14:45;;;;;;;19.40;12.30;;;4.90;33.20;;;;;;5042035;28;20461;-68
2022/11/27 12:17:25;;;;;;;17.27;11.40;;;5.00;32.70;;;;;;5038613;22;20634;-68
2022/11/27 12:20:19;;;;;;;17.03;10.30;;;5.00;32.60;;;;;;5066214;22;20493;-62
2022/11/27 12:23:33;;;;;;;17.63;10.70;;;5.00;32.40;;;;;;5055882;28;20468;-68
2022/11/27 12:26:08;;;;;;;15.50;9.97;;;5.00;32.30;;;;;;5066262;28;20466;-69
2022/11/27 12:29:07;;;;;;;15.53;10.77;;;4.90;32.10;;;;;;5059391;28;20488;-68
2022/11/27 12:31:50;;;;;;;15.53;11.00;;;4.90;32.40;;;;;;5055593;28;20469;-69
2022/11/27 12:34:28;;;;;;;14.90;11.10;;;4.80;32.10;;;;;;5046594;28;20988;-68
2022/11/27 12:37:12;;;;;;;18.03;11.00;;;4.80;32.10;;;;;;5048757;28;20465;-69
2022/11/27 12:39:55;;;;;;;16.47;12.40;;;4.80;32.40;;;;;;5049300;28;20521;-67
2022/11/27 12:42:25;;;;;;;17.83;12.03;;;4.70;32.40;;;;;;5045145;28;20480;-68
2022/11/27 12:44:57;;;;;;;16.80;12.00;;;4.80;32.50;;;;;;5046183;28;20516;-68
2022/11/27 12:47:28;;;;;;;19.17;12.27;;;4.80;32.10;;;;;;5041869;28;20473;-68
2022/11/27 12:49:59;;;;;;;19.13;13.37;;;4.70;32.10;;;;;;5040785;28;20481;-68
2022/11/27 12:52:29;;;;;;;23.23;12.83;;;4.70;32.30;;;;;;5042248;28;20480;-68
2022/11/27 12:55:02;;;;;;;18.50;13.53;;;4.80;32.30;;;;;;5039436;28;20508;-70
2022/11/27 12:57:35;;;;;;;22.60;12.97;;;4.80;32.20;;;;;;5034302;28;21171;-66